createdAt,value
2022-10-09T00:00:34.667Z,7.12
2022-10-09T00:01:34.681Z,7.16
2022-10-09T00:02:34.888Z,7.08
2022-10-09T00:03:34.693Z,6.91
2022-10-09T00:04:34.721Z,6.93
2022-10-09T00:05:35.003Z,6.89
2022-10-09T00:06:34.789Z,6.79
2022-10-09T00:07:35.446Z,6.81
2022-10-09T00:08:34.599Z,6.73
2022-10-09T00:09:34.833Z,6.71
2022-10-09T00:10:34.572Z,6.60
2022-10-09T00:11:34.599Z,6.51
2022-10-09T00:12:34.892Z,6.53
2022-10-09T00:13:35.321Z,6.46
2022-10-09T00:14:34.478Z,6.25
2022-10-09T00:15:34.670Z,6.35
2022-10-09T00:16:34.797Z,6.35
2022-10-09T00:17:34.505Z,6.48
2022-10-09T00:18:34.553Z,6.61
2022-10-09T00:19:34.613Z,6.54
2022-10-09T00:20:34.617Z,6.63
2022-10-09T00:21:34.467Z,6.71
2022-10-09T00:22:34.821Z,6.71
2022-10-09T00:23:34.662Z,6.73
2022-10-09T00:24:34.527Z,6.72
2022-10-09T00:25:35.522Z,6.73
2022-10-09T00:26:34.361Z,6.90
2022-10-09T00:27:34.366Z,6.76
2022-10-09T00:28:38.330Z,6.79
2022-10-09T00:29:35.299Z,6.72
2022-10-09T00:30:34.356Z,6.65
2022-10-09T00:31:34.284Z,6.76
2022-10-09T00:32:34.282Z,6.78
2022-10-09T00:33:34.270Z,6.65
2022-10-09T00:34:34.254Z,6.71
2022-10-09T00:35:34.335Z,6.71
2022-10-09T00:36:34.523Z,6.87
2022-10-09T00:37:35.119Z,6.75
2022-10-09T00:38:34.222Z,6.90
2022-10-09T00:39:34.187Z,6.96
2022-10-09T00:40:34.287Z,6.99
2022-10-09T00:41:34.305Z,6.96
2022-10-09T00:42:34.345Z,7.00
2022-10-09T00:43:34.219Z,7.07
2022-10-09T00:44:34.149Z,7.00
2022-10-09T00:45:34.124Z,6.96
2022-10-09T00:46:34.151Z,6.99
2022-10-09T00:47:34.141Z,7.08
2022-10-09T00:48:34.067Z,6.99
2022-10-09T00:49:34.088Z,7.00
2022-10-09T00:50:34.284Z,7.14
2022-10-09T00:51:34.178Z,6.97
2022-10-09T00:52:34.063Z,7.04
2022-10-09T00:53:34.037Z,7.00
2022-10-09T00:54:34.071Z,7.09
2022-10-09T00:55:33.998Z,7.04
2022-10-09T00:56:34.043Z,6.96
2022-10-09T00:57:34.046Z,6.94
2022-10-09T00:58:33.995Z,6.86
2022-10-09T00:59:34.004Z,6.89
2022-10-09T01:00:33.964Z,6.82
2022-10-09T01:01:34.047Z,6.79
2022-10-09T01:02:34.026Z,6.78
2022-10-09T01:03:33.931Z,6.76
2022-10-09T01:04:35.000Z,6.69
2022-10-09T01:05:33.903Z,6.65
2022-10-09T01:06:34.001Z,6.61
2022-10-09T01:07:34.025Z,6.63
2022-10-09T01:08:34.102Z,6.61
2022-10-09T01:09:33.991Z,6.63
2022-10-09T01:10:33.920Z,6.64
2022-10-09T01:11:34.391Z,6.58
2022-10-09T01:12:34.268Z,6.61
2022-10-09T01:13:33.917Z,6.58
2022-10-09T01:14:33.816Z,6.57
2022-10-09T01:15:33.945Z,6.48
2022-10-09T01:16:33.757Z,6.50
2022-10-09T01:17:33.795Z,6.54
2022-10-09T01:18:33.812Z,6.64
2022-10-09T01:19:34.049Z,6.50
2022-10-09T01:20:33.804Z,6.55
2022-10-09T01:21:33.868Z,6.50
2022-10-09T01:22:33.993Z,6.53
2022-10-09T01:23:33.769Z,6.45
2022-10-09T01:24:33.794Z,6.50
2022-10-09T01:25:33.705Z,6.32
2022-10-09T01:26:33.857Z,6.40
2022-10-09T01:27:33.671Z,6.33
2022-10-09T01:28:33.739Z,6.45
2022-10-09T01:29:33.682Z,6.43
2022-10-09T01:30:33.755Z,6.42
2022-10-09T01:31:33.902Z,6.36
2022-10-09T01:32:33.823Z,6.43
2022-10-09T01:33:33.778Z,6.32
2022-10-09T01:34:33.670Z,6.36
2022-10-09T01:35:33.649Z,6.21
2022-10-09T01:36:33.697Z,6.30
2022-10-09T01:37:33.608Z,6.27
2022-10-09T01:38:33.704Z,6.27
2022-10-09T01:39:33.754Z,6.36
2022-10-09T01:40:33.607Z,6.33
2022-10-09T01:41:33.582Z,6.30
2022-10-09T01:42:33.665Z,6.10
2022-10-09T01:43:33.549Z,5.96
2022-10-09T01:44:33.789Z,5.74
2022-10-09T01:45:33.549Z,5.67
2022-10-09T01:46:33.688Z,5.65
2022-10-09T01:47:33.497Z,5.78
2022-10-09T01:48:33.546Z,5.73
2022-10-09T01:49:33.688Z,5.59
2022-10-09T01:50:33.683Z,5.80
2022-10-09T01:51:33.753Z,5.74
2022-10-09T01:52:33.579Z,5.74
2022-10-09T01:53:33.454Z,5.78
2022-10-09T01:54:33.888Z,5.73
2022-10-09T01:55:33.498Z,5.67
2022-10-09T01:56:33.479Z,5.80
2022-10-09T01:57:33.726Z,5.83
2022-10-09T01:58:33.660Z,5.84
2022-10-09T01:59:33.340Z,5.88
2022-10-09T02:00:33.414Z,5.80
2022-10-09T02:01:33.320Z,5.81
2022-10-09T02:02:33.430Z,5.75
2022-10-09T02:03:33.354Z,5.85
2022-10-09T02:04:33.247Z,5.81
2022-10-09T02:05:33.219Z,5.75
2022-10-09T02:06:33.242Z,5.70
2022-10-09T02:07:33.286Z,5.67
2022-10-09T02:08:33.631Z,5.59
2022-10-09T02:09:34.306Z,5.62
2022-10-09T02:10:33.559Z,5.65
2022-10-09T02:11:33.239Z,5.65
2022-10-09T02:12:34.003Z,5.63
2022-10-09T02:13:34.067Z,5.59
2022-10-09T02:15:05.565Z,5.48
2022-10-09T02:15:33.446Z,5.42
2022-10-09T02:16:37.041Z,5.38
2022-10-09T02:17:34.107Z,5.42
2022-10-09T02:18:33.291Z,5.42
2022-10-09T02:19:33.111Z,5.37
2022-10-09T02:20:33.107Z,5.37
2022-10-09T02:21:33.059Z,5.17
2022-10-09T02:22:33.047Z,5.14
2022-10-09T02:24:00.615Z,5.19
2022-10-09T02:24:33.345Z,5.26
2022-10-09T02:25:33.099Z,5.14
2022-10-09T02:26:32.989Z,5.14
2022-10-09T02:27:33.004Z,5.15
2022-10-09T02:28:33.018Z,5.26
2022-10-09T02:29:32.963Z,5.15
2022-10-09T02:30:33.044Z,5.24
2022-10-09T02:31:32.991Z,5.37
2022-10-09T02:32:32.966Z,5.35
2022-10-09T02:33:33.120Z,5.33
2022-10-09T02:34:33.044Z,5.41
2022-10-09T02:35:32.988Z,5.42
2022-10-09T02:36:32.962Z,5.49
2022-10-09T02:37:32.875Z,5.48
2022-10-09T02:38:32.879Z,5.56
2022-10-09T02:39:32.844Z,5.65
2022-10-09T02:40:32.853Z,5.66
2022-10-09T02:41:33.641Z,5.65
2022-10-09T02:42:33.647Z,5.70
2022-10-09T02:43:32.812Z,5.80
2022-10-09T02:44:32.820Z,5.69
2022-10-09T02:45:32.858Z,5.62
2022-10-09T02:46:33.802Z,5.67
2022-10-09T02:47:32.968Z,5.84
2022-10-09T02:48:32.869Z,5.73
2022-10-09T02:49:32.876Z,5.74
2022-10-09T02:50:32.781Z,5.70
2022-10-09T02:51:32.748Z,5.81
2022-10-09T02:52:32.696Z,5.77
2022-10-09T02:53:32.692Z,5.70
2022-10-09T02:54:32.701Z,5.80
2022-10-09T02:55:32.685Z,5.78
2022-10-09T02:56:37.944Z,5.75
2022-10-09T02:57:34.668Z,5.77
2022-10-09T02:58:32.650Z,5.74
2022-10-09T02:59:32.662Z,5.80
2022-10-09T03:00:32.657Z,5.69
2022-10-09T03:01:32.685Z,5.74
2022-10-09T03:02:32.663Z,5.77
2022-10-09T03:03:32.615Z,5.74
2022-10-09T03:04:32.570Z,5.77
2022-10-09T03:05:32.575Z,5.80
2022-10-09T03:06:32.596Z,5.74
2022-10-09T03:07:32.589Z,5.69
2022-10-09T03:08:32.533Z,5.59
2022-10-09T03:09:33.844Z,5.62
2022-10-09T03:10:33.532Z,5.65
2022-10-09T03:11:32.501Z,5.56
2022-10-09T03:12:32.585Z,5.58
2022-10-09T03:13:32.460Z,5.63
2022-10-09T03:14:32.509Z,5.65
2022-10-09T03:15:32.489Z,5.65
2022-10-09T03:16:32.494Z,5.56
2022-10-09T03:17:32.434Z,5.49
2022-10-09T03:18:32.470Z,5.37
2022-10-09T03:19:32.734Z,5.47
2022-10-09T03:20:32.397Z,5.26
2022-10-09T03:21:32.386Z,5.11
2022-10-09T03:22:32.602Z,5.23
2022-10-09T03:23:32.513Z,5.15
2022-10-09T03:24:32.469Z,5.09
2022-10-09T03:25:32.374Z,5.09
2022-10-09T03:26:32.384Z,5.08
2022-10-09T03:27:32.373Z,5.08
2022-10-09T03:28:32.392Z,5.02
2022-10-09T03:29:32.305Z,5.04
2022-10-09T03:30:32.303Z,5.08
2022-10-09T03:31:52.538Z,4.97
2022-10-09T03:32:34.314Z,5.04
2022-10-09T03:33:32.362Z,5.01
2022-10-09T03:34:32.378Z,4.90
2022-10-09T03:35:32.369Z,4.87
2022-10-09T03:36:32.257Z,4.69
2022-10-09T03:37:32.239Z,4.69
2022-10-09T03:38:32.238Z,4.77
2022-10-09T03:39:32.219Z,4.74
2022-10-09T03:40:32.333Z,4.59
2022-10-09T03:41:32.173Z,4.65
2022-10-09T03:42:32.190Z,4.57
2022-10-09T03:43:32.371Z,4.53
2022-10-09T03:44:32.211Z,4.56
2022-10-09T03:45:32.170Z,4.56
2022-10-09T03:46:32.223Z,4.38
2022-10-09T03:47:32.087Z,4.35
2022-10-09T03:48:32.224Z,4.36
2022-10-09T03:49:33.280Z,4.29
2022-10-09T03:50:32.131Z,4.35
2022-10-09T03:51:32.135Z,4.24
2022-10-09T03:52:32.160Z,4.32
2022-10-09T03:53:32.114Z,4.34
2022-10-09T03:54:32.051Z,4.39
2022-10-09T03:55:32.118Z,4.38
2022-10-09T03:56:32.072Z,4.39
2022-10-09T03:57:32.035Z,4.29
2022-10-09T03:58:32.189Z,4.26
2022-10-09T03:59:32.092Z,4.25
2022-10-09T04:00:32.014Z,4.24
2022-10-09T04:01:31.989Z,4.34
2022-10-09T04:02:32.158Z,4.46
2022-10-09T04:03:31.971Z,4.42
2022-10-09T04:04:31.970Z,4.57
2022-10-09T04:05:31.933Z,4.50
2022-10-09T04:06:31.928Z,4.56
2022-10-09T04:07:31.936Z,4.54
2022-10-09T04:08:31.973Z,4.56
2022-10-09T04:09:32.126Z,4.42
2022-10-09T04:10:31.876Z,4.32
2022-10-09T04:11:31.840Z,4.18
2022-10-09T04:12:32.326Z,3.77
2022-10-09T04:13:32.117Z,3.67
2022-10-09T04:14:32.361Z,3.63
2022-10-09T04:15:31.805Z,3.77
2022-10-09T04:16:31.844Z,3.78
2022-10-09T04:17:31.769Z,3.98
2022-10-09T04:18:31.802Z,3.90
2022-10-09T04:19:31.777Z,3.75
2022-10-09T04:20:32.617Z,3.75
2022-10-09T04:21:32.019Z,3.72
2022-10-09T04:22:31.714Z,3.75
2022-10-09T04:23:31.733Z,3.64
2022-10-09T04:24:31.701Z,3.68
2022-10-09T04:25:32.005Z,3.81
2022-10-09T04:26:31.753Z,3.92
2022-10-09T04:27:32.845Z,3.82
2022-10-09T04:28:31.831Z,3.77
2022-10-09T04:29:32.197Z,3.77
2022-10-09T04:30:31.717Z,3.68
2022-10-09T04:31:31.792Z,3.72
2022-10-09T04:32:31.709Z,3.72
2022-10-09T04:33:31.601Z,3.81
2022-10-09T04:34:31.998Z,3.80
2022-10-09T04:35:31.850Z,3.96
2022-10-09T04:36:31.752Z,3.95
2022-10-09T04:37:31.799Z,4.02
2022-10-09T04:38:31.530Z,4.08
2022-10-09T04:39:31.954Z,4.06
2022-10-09T04:40:32.110Z,4.10
2022-10-09T04:41:34.745Z,4.14
2022-10-09T04:42:31.926Z,4.18
2022-10-09T04:43:31.812Z,4.14
2022-10-09T04:44:31.520Z,4.21
2022-10-09T04:45:31.609Z,4.20
2022-10-09T04:46:31.570Z,4.14
2022-10-09T04:47:31.451Z,3.92
2022-10-09T04:48:31.478Z,3.84
2022-10-09T04:49:31.390Z,3.74
2022-10-09T04:50:31.453Z,3.72
2022-10-09T04:51:31.535Z,3.68
2022-10-09T04:52:31.538Z,3.70
2022-10-09T04:53:31.473Z,3.72
2022-10-09T04:54:31.556Z,3.93
2022-10-09T04:55:32.614Z,3.99
2022-10-09T04:56:31.487Z,4.02
2022-10-09T04:57:31.451Z,4.18
2022-10-09T04:58:31.395Z,4.10
2022-10-09T04:59:31.327Z,4.24
2022-10-09T05:00:31.632Z,4.44
2022-10-09T05:01:37.064Z,4.42
2022-10-09T05:02:32.341Z,4.51
2022-10-09T05:03:31.409Z,4.57
2022-10-09T05:04:31.259Z,4.62
2022-10-09T05:05:31.238Z,4.72
2022-10-09T05:06:31.247Z,4.61
2022-10-09T05:07:31.304Z,4.68
2022-10-09T05:08:31.725Z,4.69
2022-10-09T05:09:31.991Z,4.65
2022-10-09T05:10:31.315Z,4.75
2022-10-09T05:11:31.243Z,4.72
2022-10-09T05:12:31.166Z,4.74
2022-10-09T05:13:31.438Z,4.75
2022-10-09T05:14:31.166Z,4.86
2022-10-09T05:15:31.151Z,4.77
2022-10-09T05:16:31.180Z,4.84
2022-10-09T05:17:31.269Z,4.84
2022-10-09T05:18:31.089Z,4.79
2022-10-09T05:19:31.649Z,4.90
2022-10-09T05:20:31.510Z,4.79
2022-10-09T05:21:31.776Z,4.83
2022-10-09T05:22:31.167Z,4.86
2022-10-09T05:23:31.104Z,4.88
2022-10-09T05:24:31.044Z,4.84
2022-10-09T05:25:31.317Z,4.72
2022-10-09T05:26:31.006Z,4.84
2022-10-09T05:27:31.126Z,4.71
2022-10-09T05:28:31.233Z,4.59
2022-10-09T05:29:31.001Z,4.54
2022-10-09T05:30:31.030Z,4.51
2022-10-09T05:31:31.241Z,4.59
2022-10-09T05:32:31.204Z,4.79
2022-10-09T05:33:31.001Z,4.71
2022-10-09T05:34:30.917Z,4.74
2022-10-09T05:35:30.933Z,4.71
2022-10-09T05:36:31.938Z,4.65
2022-10-09T05:37:30.921Z,4.71
2022-10-09T05:38:30.909Z,4.71
2022-10-09T05:39:31.664Z,4.86
2022-10-09T05:40:31.482Z,4.74
2022-10-09T05:41:31.380Z,4.80
2022-10-09T05:42:31.188Z,4.72
2022-10-09T05:43:31.561Z,4.59
2022-10-09T05:44:31.797Z,4.39
2022-10-09T05:45:31.431Z,4.42
2022-10-09T05:46:31.461Z,4.39
2022-10-09T05:47:31.381Z,4.49
2022-10-09T05:48:31.385Z,4.59
2022-10-09T05:49:32.491Z,4.50
2022-10-09T05:50:30.785Z,4.59
2022-10-09T05:51:30.766Z,4.56
2022-10-09T05:52:30.774Z,4.56
2022-10-09T05:53:30.729Z,4.61
2022-10-09T05:54:30.725Z,4.61
2022-10-09T05:55:30.750Z,4.67
2022-10-09T05:56:30.678Z,4.74
2022-10-09T05:57:30.700Z,4.69
2022-10-09T05:58:31.709Z,4.74
2022-10-09T05:59:30.679Z,4.67
2022-10-09T06:00:30.687Z,4.67
2022-10-09T06:01:30.714Z,4.59
2022-10-09T06:02:30.709Z,4.61
2022-10-09T06:03:30.618Z,4.65
2022-10-09T06:04:30.611Z,4.62
2022-10-09T06:05:31.628Z,4.65
2022-10-09T06:06:30.597Z,4.71
2022-10-09T06:07:30.633Z,4.65
2022-10-09T06:08:30.595Z,4.61
2022-10-09T06:09:30.538Z,4.79
2022-10-09T06:10:32.724Z,4.74
2022-10-09T06:11:30.558Z,4.75
2022-10-09T06:12:31.571Z,4.74
2022-10-09T06:13:30.531Z,4.79
2022-10-09T06:14:30.529Z,4.71
2022-10-09T06:15:30.524Z,4.77
2022-10-09T06:16:30.559Z,4.75
2022-10-09T06:17:30.478Z,4.79
2022-10-09T06:18:30.471Z,4.69
2022-10-09T06:19:30.478Z,4.77
2022-10-09T06:20:31.111Z,4.80
2022-10-09T06:21:30.451Z,4.74
2022-10-09T06:22:30.431Z,4.88
2022-10-09T06:23:30.426Z,4.69
2022-10-09T06:24:30.395Z,4.74
2022-10-09T06:25:30.434Z,4.59
2022-10-09T06:26:30.467Z,4.65
2022-10-09T06:27:30.383Z,4.64
2022-10-09T06:28:30.606Z,4.64
2022-10-09T06:29:30.915Z,4.59
2022-10-09T06:30:32.862Z,4.35
2022-10-09T06:31:31.307Z,4.35
2022-10-09T06:32:30.299Z,4.49
2022-10-09T06:33:30.316Z,4.32
2022-10-09T06:34:30.351Z,4.25
2022-10-09T06:35:30.296Z,4.00
2022-10-09T06:36:30.301Z,3.64
2022-10-09T06:37:30.259Z,3.75
2022-10-09T06:38:30.244Z,3.70
2022-10-09T06:39:30.258Z,3.78
2022-10-09T06:40:30.248Z,3.80
2022-10-09T06:41:30.208Z,3.82
2022-10-09T06:42:30.195Z,3.82
2022-10-09T06:43:30.240Z,4.02
2022-10-09T06:44:30.244Z,4.04
2022-10-09T06:45:30.144Z,3.78
2022-10-09T06:46:30.273Z,3.80
2022-10-09T06:47:30.160Z,3.78
2022-10-09T06:48:30.172Z,3.86
2022-10-09T06:49:30.121Z,3.86
2022-10-09T06:50:31.097Z,3.78
2022-10-09T06:51:30.120Z,3.84
2022-10-09T06:52:30.076Z,3.78
2022-10-09T06:53:30.077Z,3.92
2022-10-09T06:54:30.068Z,3.81
2022-10-09T06:55:30.051Z,3.88
2022-10-09T06:56:30.032Z,3.95
2022-10-09T06:57:30.037Z,4.07
2022-10-09T06:58:30.077Z,4.24
2022-10-09T06:59:29.997Z,4.42
2022-10-09T07:00:29.998Z,4.49
2022-10-09T07:01:30.236Z,4.53
2022-10-09T07:02:30.257Z,4.56
2022-10-09T07:03:30.033Z,4.68
2022-10-09T07:04:29.968Z,4.67
2022-10-09T07:05:30.026Z,4.79
2022-10-09T07:06:29.920Z,4.90
2022-10-09T07:07:31.017Z,4.91
2022-10-09T07:08:29.993Z,4.88
2022-10-09T07:09:29.897Z,4.72
2022-10-09T07:10:29.868Z,4.72
2022-10-09T07:11:30.118Z,4.80
2022-10-09T07:12:29.849Z,4.84
2022-10-09T07:13:29.867Z,4.90
2022-10-09T07:14:29.837Z,4.77
2022-10-09T07:15:30.016Z,4.84
2022-10-09T07:16:29.956Z,5.04
2022-10-09T07:17:29.920Z,4.93
2022-10-09T07:18:29.785Z,4.87
2022-10-09T07:19:30.303Z,4.49
2022-10-09T07:20:29.850Z,4.61
2022-10-09T07:21:29.769Z,4.61
2022-10-09T07:22:29.733Z,4.67
2022-10-09T07:23:29.806Z,4.72
2022-10-09T07:24:29.946Z,4.72
2022-10-09T07:25:29.740Z,4.74
2022-10-09T07:26:29.755Z,4.91
2022-10-09T07:27:29.750Z,4.99
2022-10-09T07:28:29.781Z,5.11
2022-10-09T07:29:29.770Z,5.09
2022-10-09T07:30:29.832Z,5.12
2022-10-09T07:31:29.767Z,5.24
2022-10-09T07:32:29.778Z,5.27
2022-10-09T07:33:29.633Z,5.14
2022-10-09T07:34:29.611Z,5.14
2022-10-09T07:35:30.151Z,5.12
2022-10-09T07:36:29.599Z,5.17
2022-10-09T07:37:29.583Z,5.11
2022-10-09T07:38:29.606Z,5.27
2022-10-09T07:39:29.554Z,5.29
2022-10-09T07:40:29.721Z,5.22
2022-10-09T07:41:29.555Z,5.38
2022-10-09T07:42:29.551Z,5.32
2022-10-09T07:43:29.726Z,5.17
2022-10-09T07:44:29.747Z,5.14
2022-10-09T07:45:30.120Z,5.09
2022-10-09T07:46:33.478Z,5.22
2022-10-09T07:47:31.303Z,5.33
2022-10-09T07:48:29.546Z,5.42
2022-10-09T07:49:29.459Z,5.51
2022-10-09T07:50:29.681Z,5.58
2022-10-09T07:51:29.477Z,5.59
2022-10-09T07:52:29.412Z,5.23
2022-10-09T07:53:33.738Z,5.11
2022-10-09T07:54:30.445Z,5.19
2022-10-09T07:55:29.399Z,5.14
2022-10-09T07:56:29.463Z,5.26
2022-10-09T07:57:29.459Z,5.32
2022-10-09T07:58:29.485Z,5.15
2022-10-09T07:59:29.428Z,5.11
2022-10-09T08:00:29.446Z,5.20
2022-10-09T08:01:29.514Z,5.09
2022-10-09T08:02:29.540Z,5.12
2022-10-09T08:03:29.377Z,5.17
2022-10-09T08:04:29.421Z,5.27
2022-10-09T08:05:29.329Z,5.22
2022-10-09T08:06:29.448Z,5.11
2022-10-09T08:07:34.104Z,5.19
2022-10-09T08:08:31.388Z,5.12
2022-10-09T08:09:29.426Z,5.09
2022-10-09T08:10:29.332Z,5.11
2022-10-09T08:11:29.295Z,5.06
2022-10-09T08:12:29.258Z,5.17
2022-10-09T08:13:29.223Z,5.32
2022-10-09T08:14:29.172Z,5.37
2022-10-09T08:15:29.232Z,5.48
2022-10-09T08:16:29.148Z,5.45
2022-10-09T08:17:29.168Z,5.41
2022-10-09T08:18:30.002Z,5.55
2022-10-09T08:19:29.204Z,5.60
2022-10-09T08:20:29.197Z,5.51
2022-10-09T08:21:29.198Z,5.63
2022-10-09T08:22:29.176Z,5.65
2022-10-09T08:23:29.222Z,5.70
2022-10-09T08:24:29.145Z,5.63
2022-10-09T08:25:29.264Z,5.74
2022-10-09T08:26:29.031Z,5.90
2022-10-09T08:27:29.086Z,5.87
2022-10-09T08:28:29.013Z,5.93
2022-10-09T08:29:29.121Z,5.98
2022-10-09T08:30:29.072Z,6.02
2022-10-09T08:31:29.178Z,6.13
2022-10-09T08:32:28.984Z,6.32
2022-10-09T08:33:29.042Z,6.39
2022-10-09T08:34:28.998Z,6.53
2022-10-09T08:35:33.689Z,6.65
2022-10-09T08:36:30.927Z,6.68
2022-10-09T08:37:28.993Z,6.87
2022-10-09T08:38:46.818Z,6.97
2022-10-09T08:39:30.910Z,7.07
2022-10-09T08:40:28.904Z,7.05
2022-10-09T08:41:28.908Z,7.14
2022-10-09T08:42:28.922Z,7.32
2022-10-09T08:43:29.488Z,7.29
2022-10-09T08:44:28.914Z,7.34
2022-10-09T08:45:28.916Z,7.19
2022-10-09T08:46:28.975Z,7.27
2022-10-09T08:47:28.883Z,7.33
2022-10-09T08:48:28.881Z,7.52
2022-10-09T08:49:28.814Z,7.54
2022-10-09T08:50:28.774Z,7.66
2022-10-09T08:51:28.792Z,7.67
2022-10-09T08:52:28.860Z,7.84
2022-10-09T08:53:28.754Z,7.91
2022-10-09T08:54:28.740Z,7.88
2022-10-09T08:55:28.746Z,8.07
2022-10-09T08:56:28.702Z,8.24
2022-10-09T08:57:28.735Z,8.20
2022-10-09T08:58:28.671Z,8.25
2022-10-09T08:59:28.759Z,8.52
2022-10-09T09:00:28.732Z,8.61
2022-10-09T09:01:28.713Z,8.57
2022-10-09T09:02:28.742Z,8.68
2022-10-09T09:03:28.617Z,8.89
2022-10-09T09:04:28.776Z,8.98
2022-10-09T09:05:28.721Z,8.94
2022-10-09T09:06:28.687Z,8.78
2022-10-09T09:07:28.591Z,8.76
2022-10-09T09:08:28.558Z,8.83
2022-10-09T09:09:28.538Z,8.94
2022-10-09T09:10:28.589Z,9.08
2022-10-09T09:11:28.526Z,9.06
2022-10-09T09:12:28.523Z,9.12
2022-10-09T09:13:28.526Z,9.12
2022-10-09T09:14:28.549Z,9.23
2022-10-09T09:15:28.471Z,9.34
2022-10-09T09:16:28.546Z,9.35
2022-10-09T09:17:28.479Z,9.42
2022-10-09T09:18:28.459Z,9.52
2022-10-09T09:19:28.754Z,9.48
2022-10-09T09:20:28.387Z,9.62
2022-10-09T09:21:28.499Z,9.62
2022-10-09T09:22:28.527Z,9.63
2022-10-09T09:23:28.479Z,9.68
2022-10-09T09:24:28.511Z,9.73
2022-10-09T09:25:28.463Z,9.75
2022-10-09T09:26:28.423Z,9.80
2022-10-09T09:27:28.464Z,9.85
2022-10-09T09:28:28.398Z,9.95
2022-10-09T09:29:28.375Z,10.04
2022-10-09T09:30:28.336Z,10.13
2022-10-09T09:31:28.388Z,10.13
2022-10-09T09:32:28.532Z,10.16
2022-10-09T09:33:30.521Z,10.24
2022-10-09T09:34:28.332Z,10.29
2022-10-09T09:35:28.412Z,10.29
2022-10-09T09:36:28.264Z,10.36
2022-10-09T09:37:28.605Z,10.42
2022-10-09T09:38:28.352Z,10.52
2022-10-09T09:40:38.558Z,10.83
2022-10-09T09:41:30.201Z,10.99
2022-10-09T09:42:28.180Z,11.02
2022-10-09T09:43:29.119Z,11.05
2022-10-09T09:44:28.156Z,11.11
2022-10-09T09:45:28.184Z,11.09
2022-10-09T09:46:29.089Z,11.12
2022-10-09T09:47:28.173Z,11.08
2022-10-09T09:48:28.277Z,11.26
2022-10-09T09:49:28.116Z,11.27
2022-10-09T09:50:45.993Z,11.31
2022-10-09T09:51:30.285Z,11.54
2022-10-09T09:52:29.098Z,11.62
2022-10-09T09:53:28.077Z,11.49
2022-10-09T09:54:28.049Z,11.56
2022-10-09T09:55:28.000Z,11.36
2022-10-09T09:56:28.013Z,11.42
2022-10-09T09:57:28.092Z,11.17
2022-10-09T09:58:28.608Z,11.35
2022-10-09T09:59:28.033Z,11.39
2022-10-09T10:00:28.038Z,11.56
2022-10-09T10:01:27.977Z,11.69
2022-10-09T10:02:28.110Z,11.57
2022-10-09T10:03:27.922Z,11.59
2022-10-09T10:04:27.954Z,11.59
2022-10-09T10:05:27.954Z,11.69
2022-10-09T10:06:27.893Z,11.87
2022-10-09T10:07:27.943Z,11.85
2022-10-09T10:08:27.955Z,11.54
2022-10-09T10:09:28.062Z,11.62
2022-10-09T10:10:27.932Z,11.74
2022-10-09T10:11:28.054Z,11.81
2022-10-09T10:12:27.913Z,11.82
2022-10-09T10:13:27.852Z,11.96
2022-10-09T10:14:27.821Z,11.94
2022-10-09T10:15:27.902Z,11.90
2022-10-09T10:16:27.917Z,11.94
2022-10-09T10:17:27.800Z,12.11
2022-10-09T10:18:27.902Z,12.08
2022-10-09T10:19:27.820Z,12.19
2022-10-09T10:20:27.901Z,12.11
2022-10-09T10:21:27.917Z,12.25
2022-10-09T10:22:27.822Z,12.29
2022-10-09T10:23:27.774Z,12.41
2022-10-09T10:24:27.854Z,12.56
2022-10-09T10:25:27.798Z,12.69
2022-10-09T10:26:27.862Z,12.89
2022-10-09T10:27:27.698Z,12.95
2022-10-09T10:28:27.855Z,13.07
2022-10-09T10:29:27.657Z,13.32
2022-10-09T10:30:27.771Z,13.46
2022-10-09T10:31:27.751Z,13.43
2022-10-09T10:32:27.617Z,13.48
2022-10-09T10:33:27.642Z,13.61
2022-10-09T10:34:27.602Z,13.71
2022-10-09T10:35:27.647Z,13.68
2022-10-09T10:36:27.830Z,13.90
2022-10-09T10:37:27.603Z,13.94
2022-10-09T10:38:27.546Z,13.99
2022-10-09T10:39:27.574Z,14.02
2022-10-09T10:40:27.571Z,13.90
2022-10-09T10:41:27.615Z,13.99
2022-10-09T10:42:27.704Z,14.16
2022-10-09T10:43:27.584Z,14.36
2022-10-09T10:44:27.951Z,14.23
2022-10-09T10:45:27.656Z,14.09
2022-10-09T10:46:27.518Z,14.30
2022-10-09T10:47:27.539Z,14.16
2022-10-09T10:48:27.651Z,14.23
2022-10-09T10:49:31.653Z,14.26
2022-10-09T10:50:28.513Z,14.42
2022-10-09T10:51:27.516Z,14.39
2022-10-09T10:52:27.436Z,14.57
2022-10-09T10:53:27.541Z,14.49
2022-10-09T10:54:27.418Z,14.42
2022-10-09T10:55:27.388Z,14.27
2022-10-09T10:56:27.330Z,14.12
2022-10-09T10:57:27.415Z,14.21
2022-10-09T10:58:27.383Z,14.20
2022-10-09T10:59:27.350Z,14.13
2022-10-09T11:00:27.301Z,14.21
2022-10-09T11:01:27.611Z,14.39
2022-10-09T11:02:27.499Z,14.34
2022-10-09T11:03:27.636Z,14.26
2022-10-09T11:04:27.248Z,14.27
2022-10-09T11:05:27.340Z,14.46
2022-10-09T11:06:27.264Z,14.67
2022-10-09T11:07:27.280Z,14.85
2022-10-09T11:08:27.260Z,15.04
2022-10-09T11:09:27.362Z,15.07
2022-10-09T11:10:27.230Z,15.09
2022-10-09T11:11:27.174Z,15.13
2022-10-09T11:12:46.733Z,14.57
2022-10-09T11:13:29.216Z,14.42
2022-10-09T11:14:27.170Z,14.38
2022-10-09T11:15:27.302Z,14.41
2022-10-09T11:16:27.186Z,14.45
2022-10-09T11:17:27.158Z,14.61
2022-10-09T11:18:27.137Z,14.75
2022-10-09T11:19:27.077Z,14.61
2022-10-09T11:20:27.112Z,14.79
2022-10-09T11:21:27.180Z,14.95
2022-10-09T11:22:27.136Z,14.91
2022-10-09T11:23:27.118Z,15.09
2022-10-09T11:24:27.029Z,15.34
2022-10-09T11:25:27.045Z,15.40
2022-10-09T11:26:27.958Z,15.56
2022-10-09T11:27:27.294Z,15.53
2022-10-09T11:28:27.082Z,15.34
2022-10-09T11:29:27.057Z,15.46
2022-10-09T11:30:26.937Z,15.64
2022-10-09T11:31:27.027Z,15.73
2022-10-09T11:32:26.991Z,15.89
2022-10-09T11:33:26.947Z,15.86
2022-10-09T11:34:26.930Z,16.03
2022-10-09T11:35:27.033Z,16.06
2022-10-09T11:36:26.859Z,16.04
2022-10-09T11:37:26.881Z,16.06
2022-10-09T11:38:26.925Z,15.91
2022-10-09T11:39:26.942Z,15.93
2022-10-09T11:40:26.894Z,16.03
2022-10-09T11:41:26.836Z,15.92
2022-10-09T11:42:26.838Z,15.93
2022-10-09T11:43:26.811Z,15.96
2022-10-09T11:44:26.802Z,16.16
2022-10-09T11:45:26.846Z,16.18
2022-10-09T11:46:26.774Z,16.14
2022-10-09T11:47:26.729Z,15.89
2022-10-09T11:48:26.728Z,15.73
2022-10-09T11:49:26.815Z,15.77
2022-10-09T11:50:26.697Z,15.56
2022-10-09T11:51:26.888Z,15.38
2022-10-09T11:52:26.726Z,15.46
2022-10-09T11:53:26.676Z,15.44
2022-10-09T11:54:26.790Z,15.59
2022-10-09T11:55:26.799Z,15.74
2022-10-09T11:56:26.821Z,15.71
2022-10-09T11:57:26.663Z,15.98
2022-10-09T11:58:26.615Z,16.04
2022-10-09T11:59:26.629Z,15.99
2022-10-09T12:00:26.647Z,16.11
2022-10-09T12:01:26.622Z,16.08
2022-10-09T12:02:26.605Z,16.14
2022-10-09T12:03:26.600Z,16.03
2022-10-09T12:04:43.227Z,15.66
2022-10-09T12:05:28.559Z,15.55
2022-10-09T12:06:26.675Z,15.68
2022-10-09T12:07:26.840Z,16.03
2022-10-09T12:08:26.549Z,16.14
2022-10-09T12:09:26.465Z,16.25
2022-10-09T12:10:26.699Z,16.45
2022-10-09T12:11:26.637Z,16.33
2022-10-09T12:12:26.488Z,16.37
2022-10-09T12:13:26.576Z,16.48
2022-10-09T12:14:26.625Z,16.27
2022-10-09T12:15:26.430Z,16.18
2022-10-09T12:16:26.606Z,16.42
2022-10-09T12:17:26.431Z,16.47
2022-10-09T12:18:26.418Z,16.40
2022-10-09T12:19:26.385Z,16.37
2022-10-09T12:20:26.368Z,16.48
2022-10-09T12:21:26.323Z,16.44
2022-10-09T12:22:26.367Z,16.54
2022-10-09T12:23:27.601Z,16.59
2022-10-09T12:24:27.300Z,16.60
2022-10-09T12:25:26.303Z,16.72
2022-10-09T12:26:26.340Z,16.73
2022-10-09T12:27:26.335Z,16.70
2022-10-09T12:28:26.409Z,16.50
2022-10-09T12:29:26.350Z,16.29
2022-10-09T12:30:26.428Z,16.36
2022-10-09T12:31:26.343Z,16.52
2022-10-09T12:32:26.393Z,16.60
2022-10-09T12:33:26.316Z,16.42
2022-10-09T12:34:26.508Z,16.47
2022-10-09T12:35:26.200Z,16.62
2022-10-09T12:36:26.220Z,16.73
2022-10-09T12:37:26.160Z,16.84
2022-10-09T12:38:26.236Z,16.78
2022-10-09T12:39:26.138Z,16.52
2022-10-09T12:40:26.132Z,16.55
2022-10-09T12:41:26.185Z,16.66
2022-10-09T12:42:26.626Z,16.91
2022-10-09T12:43:26.113Z,17.00
2022-10-09T12:44:26.072Z,16.95
2022-10-09T12:45:26.181Z,17.15
2022-10-09T12:46:26.195Z,17.24
2022-10-09T12:47:26.069Z,16.69
2022-10-09T12:48:26.258Z,16.77
2022-10-09T12:49:26.062Z,16.63
2022-10-09T12:50:25.993Z,16.62
2022-10-09T12:51:26.020Z,16.84
2022-10-09T12:52:26.303Z,17.14
2022-10-09T12:53:26.001Z,17.18
2022-10-09T12:54:25.964Z,17.36
2022-10-09T12:55:26.054Z,17.32
2022-10-09T12:56:26.025Z,17.49
2022-10-09T12:57:27.709Z,17.36
2022-10-09T12:58:27.014Z,17.47
2022-10-09T12:59:25.938Z,17.55
2022-10-09T13:00:25.932Z,17.35
2022-10-09T13:01:25.936Z,17.53
2022-10-09T13:02:26.152Z,17.30
2022-10-09T13:03:25.891Z,16.90
2022-10-09T13:04:25.878Z,16.70
2022-10-09T13:05:25.853Z,16.85
2022-10-09T13:06:25.833Z,16.95
2022-10-09T13:07:25.851Z,16.81
2022-10-09T13:08:25.834Z,17.14
2022-10-09T13:09:25.933Z,17.21
2022-10-09T13:10:25.838Z,17.15
2022-10-09T13:11:25.782Z,17.05
2022-10-09T13:12:25.830Z,16.98